sensor_id;sensor_type;location;lat;lon;timestamp;pressure;altitude;pressure_sealevel;temperature;humidity
76858;BME280;65830;0.000;0.000;2023-05-16T00:00:26;99628.47;;;14.62;75.20
76858;BME280;65830;0.000;0.000;2023-05-16T00:02:51;99626.97;;;14.60;75.26
76858;BME280;65830;0.000;0.000;2023-05-16T00:05:17;99616.44;;;14.58;75.38
76858;BME280;65830;0.000;0.000;2023-05-16T00:07:43;99625.47;;;14.57;75.29
76858;BME280;65830;0.000;0.000;2023-05-16T00:10:09;99619.44;;;14.55;75.73
76858;BME280;65830;0.000;0.000;2023-05-16T00:12:35;99628.16;;;14.57;75.34
76858;BME280;65830;0.000;0.000;2023-05-16T00:15:02;99622.81;;;14.57;75.32
76858;BME280;65830;0.000;0.000;2023-05-16T00:17:29;99614.78;;;14.57;75.17
76858;BME280;65830;0.000;0.000;2023-05-16T00:19:55;99619.13;;;14.58;75.36
76858;BME280;65830;0.000;0.000;2023-05-16T00:22:23;99610.28;;;14.58;75.49
76858;BME280;65830;0.000;0.000;2023-05-16T00:24:48;99611.28;;;14.57;75.24
76858;BME280;65830;0.000;0.000;2023-05-16T00:27:14;99616.59;;;14.57;75.38
76858;BME280;65830;0.000;0.000;2023-05-16T00:29:41;99612.13;;;14.57;75.30
76858;BME280;65830;0.000;0.000;2023-05-16T00:32:09;99616.75;;;14.55;75.53
76858;BME280;65830;0.000;0.000;2023-05-16T00:34:50;99616.25;;;14.52;75.88
76858;BME280;65830;0.000;0.000;2023-05-16T00:37:36;99616.56;;;14.48;75.65
76858;BME280;65830;0.000;0.000;2023-05-16T00:40:18;99611.44;;;14.47;75.99
76858;BME280;65830;0.000;0.000;2023-05-16T00:43:03;99605.56;;;14.43;75.59
76858;BME280;65830;0.000;0.000;2023-05-16T00:45:42;99600.41;;;14.42;75.65
76858;BME280;65830;0.000;0.000;2023-05-16T00:48:09;99601.38;;;14.41;75.70
76858;BME280;65830;0.000;0.000;2023-05-16T00:50:35;99603.06;;;14.42;75.91
76858;BME280;65830;0.000;0.000;2023-05-16T00:53:01;99596.91;;;14.41;75.84
76858;BME280;65830;0.000;0.000;2023-05-16T00:55:26;99598.72;;;14.41;76.25
76858;BME280;65830;0.000;0.000;2023-05-16T00:57:52;99589.22;;;14.38;76.07
76858;BME280;65830;0.000;0.000;2023-05-16T01:00:18;99592.69;;;14.39;76.26
76858;BME280;65830;0.000;0.000;2023-05-16T01:02:44;99592.91;;;14.37;76.10
76858;BME280;65830;0.000;0.000;2023-05-16T01:05:15;99591.88;;;14.38;75.92
76858;BME280;65830;0.000;0.000;2023-05-16T01:07:41;99593.22;;;14.42;76.13
76858;BME280;65830;0.000;0.000;2023-05-16T01:10:07;99591.38;;;14.43;76.23
76858;BME280;65830;0.000;0.000;2023-05-16T01:12:41;99587.88;;;14.42;75.91
76858;BME280;65830;0.000;0.000;2023-05-16T01:15:12;99592.38;;;14.42;76.28
76858;BME280;65830;0.000;0.000;2023-05-16T01:21:03;99593.56;;;14.39;76.20
76858;BME280;65830;0.000;0.000;2023-05-16T01:26:59;99585.03;;;14.36;76.28
76858;BME280;65830;0.000;0.000;2023-05-16T01:29:29;99582.53;;;14.34;76.44
76858;BME280;65830;0.000;0.000;2023-05-16T01:36:02;99574.84;;;14.23;76.90
76858;BME280;65830;0.000;0.000;2023-05-16T01:39:05;99567.19;;;14.20;76.64
76858;BME280;65830;0.000;0.000;2023-05-16T01:47:45;99562.16;;;14.17;76.99
76858;BME280;65830;0.000;0.000;2023-05-16T01:50:15;99564.97;;;14.15;76.73
76858;BME280;65830;0.000;0.000;2023-05-16T01:53:05;99564.16;;;14.15;76.61
76858;BME280;65830;0.000;0.000;2023-05-16T01:55:44;99557.47;;;14.10;76.97
76858;BME280;65830;0.000;0.000;2023-05-16T01:58:10;99553.97;;;14.10;76.98
76858;BME280;65830;0.000;0.000;2023-05-16T02:00:36;99549.31;;;14.12;77.03
76858;BME280;65830;0.000;0.000;2023-05-16T02:03:02;99541.16;;;14.14;76.94
76858;BME280;65830;0.000;0.000;2023-05-16T02:05:28;99537.81;;;14.12;76.93
76858;BME280;65830;0.000;0.000;2023-05-16T02:07:53;99538.28;;;14.07;77.11
76858;BME280;65830;0.000;0.000;2023-05-16T02:10:20;99531.31;;;14.06;77.09
76858;BME280;65830;0.000;0.000;2023-05-16T02:12:46;99521.63;;;14.05;76.84
76858;BME280;65830;0.000;0.000;2023-05-16T02:15:12;99529.97;;;14.02;77.13
76858;BME280;65830;0.000;0.000;2023-05-16T02:17:39;99534.63;;;14.00;76.83
76858;BME280;65830;0.000;0.000;2023-05-16T02:20:05;99531.28;;;13.98;77.30
76858;BME280;65830;0.000;0.000;2023-05-16T02:22:47;99541.97;;;13.98;77.15
76858;BME280;65830;0.000;0.000;2023-05-16T02:25:18;99534.94;;;13.97;77.21
76858;BME280;65830;0.000;0.000;2023-05-16T02:27:44;99528.63;;;13.98;77.45
76858;BME280;65830;0.000;0.000;2023-05-16T02:33:12;99530.78;;;14.02;77.29
76858;BME280;65830;0.000;0.000;2023-05-16T02:35:41;99528.28;;;14.01;77.14
76858;BME280;65830;0.000;0.000;2023-05-16T02:38:07;99519.59;;;13.99;77.10
76858;BME280;65830;0.000;0.000;2023-05-16T02:40:32;99525.75;;;13.99;77.20
76858;BME280;65830;0.000;0.000;2023-05-16T02:42:58;99516.94;;;13.99;76.95
76858;BME280;65830;0.000;0.000;2023-05-16T02:45:23;99506.94;;;14.01;76.99
76858;BME280;65830;0.000;0.000;2023-05-16T02:47:49;99513.13;;;14.01;76.92
76858;BME280;65830;0.000;0.000;2023-05-16T02:50:17;99504.28;;;14.01;76.80
76858;BME280;65830;0.000;0.000;2023-05-16T02:52:42;99511.28;;;14.02;77.28
76858;BME280;65830;0.000;0.000;2023-05-16T02:55:08;99508.63;;;14.02;77.43
76858;BME280;65830;0.000;0.000;2023-05-16T02:57:33;99504.28;;;14.01;77.04
76858;BME280;65830;0.000;0.000;2023-05-16T02:59:59;99509.28;;;14.04;76.65
76858;BME280;65830;0.000;0.000;2023-05-16T03:02:25;99520.63;;;14.06;76.86
76858;BME280;65830;0.000;0.000;2023-05-16T03:04:50;99531.97;;;14.08;76.64
76858;BME280;65830;0.000;0.000;2023-05-16T03:07:16;99539.81;;;14.09;76.59
76858;BME280;65830;0.000;0.000;2023-05-16T03:09:42;99547.47;;;14.04;76.67
76858;BME280;65830;0.000;0.000;2023-05-16T03:12:07;99540.97;;;14.07;76.76
76858;BME280;65830;0.000;0.000;2023-05-16T03:14:33;99543.63;;;14.07;76.73
76858;BME280;65830;0.000;0.000;2023-05-16T03:16:59;99536.47;;;14.07;76.64
76858;BME280;65830;0.000;0.000;2023-05-16T03:19:24;99548.28;;;14.05;76.88
76858;BME280;65830;0.000;0.000;2023-05-16T03:21:52;99542.94;;;14.05;77.28
76858;BME280;65830;0.000;0.000;2023-05-16T03:24:17;99542.94;;;14.05;77.17
76858;BME280;65830;0.000;0.000;2023-05-16T03:26:43;99538.47;;;14.05;76.96
76858;BME280;65830;0.000;0.000;2023-05-16T03:29:08;99546.63;;;14.04;77.11
76858;BME280;65830;0.000;0.000;2023-05-16T03:31:34;99550.63;;;14.00;77.12
76858;BME280;65830;0.000;0.000;2023-05-16T03:34:01;99545.16;;;14.01;77.01
76858;BME280;65830;0.000;0.000;2023-05-16T03:36:26;99524.47;;;14.03;77.21
76858;BME280;65830;0.000;0.000;2023-05-16T03:38:53;99536.28;;;14.01;76.92
76858;BME280;65830;0.000;0.000;2023-05-16T03:41:18;99533.28;;;13.96;77.07
76858;BME280;65830;0.000;0.000;2023-05-16T03:43:45;99541.28;;;13.96;77.24
76858;BME280;65830;0.000;0.000;2023-05-16T03:46:10;99558.28;;;13.95;76.80
76858;BME280;65830;0.000;0.000;2023-05-16T03:48:36;99549.44;;;13.94;77.03
76858;BME280;65830;0.000;0.000;2023-05-16T03:51:01;99555.09;;;13.99;76.69
76858;BME280;65830;0.000;0.000;2023-05-16T03:53:27;99548.13;;;14.06;76.79
76858;BME280;65830;0.000;0.000;2023-05-16T03:55:53;99556.50;;;14.12;76.67
76858;BME280;65830;0.000;0.000;2023-05-16T03:58:18;99549.16;;;14.14;76.72
76858;BME280;65830;0.000;0.000;2023-05-16T04:00:44;99550.13;;;14.13;76.67
76858;BME280;65830;0.000;0.000;2023-05-16T04:03:11;99558.00;;;14.14;76.79
76858;BME280;65830;0.000;0.000;2023-05-16T04:05:36;99549.81;;;14.16;77.03
76858;BME280;65830;0.000;0.000;2023-05-16T04:08:02;99545.16;;;14.18;76.60
76858;BME280;65830;0.000;0.000;2023-05-16T04:10:27;99538.81;;;14.19;76.67
76858;BME280;65830;0.000;0.000;2023-05-16T04:12:53;99536.81;;;14.21;76.63
76858;BME280;65830;0.000;0.000;2023-05-16T04:15:18;99536.50;;;14.24;76.54
76858;BME280;65830;0.000;0.000;2023-05-16T04:17:47;99539.66;;;14.27;76.40
76858;BME280;65830;0.000;0.000;2023-05-16T04:20:12;99533.47;;;14.27;76.48
76858;BME280;65830;0.000;0.000;2023-05-16T04:22:38;99535.00;;;14.29;76.25
76858;BME280;65830;0.000;0.000;2023-05-16T04:25:03;99533.97;;;14.39;76.56
76858;BME280;65830;0.000;0.000;2023-05-16T04:27:29;99534.31;;;14.44;76.36
76858;BME280;65830;0.000;0.000;2023-05-16T04:29:55;99535.31;;;14.43;76.27
76858;BME280;65830;0.000;0.000;2023-05-16T04:32:21;99530.47;;;14.46;76.30
76858;BME280;65830;0.000;0.000;2023-05-16T04:34:48;99534.31;;;14.52;76.10
76858;BME280;65830;0.000;0.000;2023-05-16T04:37:14;99534.31;;;14.52;76.13
76858;BME280;65830;0.000;0.000;2023-05-16T04:39:40;99538.19;;;14.58;75.67
76858;BME280;65830;0.000;0.000;2023-05-16T04:42:06;99545.69;;;14.62;75.51
76858;BME280;65830;0.000;0.000;2023-05-16T04:44:32;99547.69;;;14.60;75.48
76858;BME280;65830;0.000;0.000;2023-05-16T04:46:58;99550.53;;;14.59;75.31
76858;BME280;65830;0.000;0.000;2023-05-16T04:49:24;99550.38;;;14.60;74.91
76858;BME280;65830;0.000;0.000;2023-05-16T04:51:49;99551.88;;;14.63;74.51
76858;BME280;65830;0.000;0.000;2023-05-16T04:54:15;99544.69;;;14.63;74.22
76858;BME280;65830;0.000;0.000;2023-05-16T04:56:40;99549.03;;;14.64;74.22
76858;BME280;65830;0.000;0.000;2023-05-16T04:59:06;99552.56;;;14.65;74.02
76858;BME280;65830;0.000;0.000;2023-05-16T05:01:31;99551.88;;;14.71;74.03
76858;BME280;65830;0.000;0.000;2023-05-16T05:03:57;99540.53;;;14.77;73.94
76858;BME280;65830;0.000;0.000;2023-05-16T05:06:22;99553.34;;;14.82;73.96
76858;BME280;65830;0.000;0.000;2023-05-16T05:08:48;99557.34;;;14.86;73.01
76858;BME280;65830;0.000;0.000;2023-05-16T05:11:14;99554.69;;;14.86;72.78
76858;BME280;65830;0.000;0.000;2023-05-16T05:13:42;99560.38;;;14.91;72.81
76858;BME280;65830;0.000;0.000;2023-05-16T05:16:07;99560.19;;;14.93;72.60
76858;BME280;65830;0.000;0.000;2023-05-16T05:18:33;99559.31;;;15.00;72.82
76858;BME280;65830;0.000;0.000;2023-05-16T05:20:58;99563.66;;;15.09;72.59
76858;BME280;65830;0.000;0.000;2023-05-16T05:23:24;99550.63;;;15.15;72.40
76858;BME280;65830;0.000;0.000;2023-05-16T05:25:50;99550.63;;;15.15;72.05
76858;BME280;65830;0.000;0.000;2023-05-16T05:28:15;99549.13;;;15.20;72.07
76858;BME280;65830;0.000;0.000;2023-05-16T05:30:41;99554.94;;;15.24;71.65
76858;BME280;65830;0.000;0.000;2023-05-16T05:33:06;99561.59;;;15.28;71.43
76858;BME280;65830;0.000;0.000;2023-05-16T05:35:32;99554.75;;;15.34;71.11
76858;BME280;65830;0.000;0.000;2023-05-16T05:37:58;99550.72;;;15.38;71.03
76858;BME280;65830;0.000;0.000;2023-05-16T05:40:23;99551.56;;;15.38;71.37
76858;BME280;65830;0.000;0.000;2023-05-16T05:42:49;99536.66;;;15.44;71.16
76858;BME280;65830;0.000;0.000;2023-05-16T05:45:14;99527.47;;;15.46;70.72
76858;BME280;65830;0.000;0.000;2023-05-16T05:47:40;99532.44;;;15.49;70.93
76858;BME280;65830;0.000;0.000;2023-05-16T05:50:06;99525.09;;;15.52;70.87
76858;BME280;65830;0.000;0.000;2023-05-16T05:52:32;99520.94;;;15.49;70.32
76858;BME280;65830;0.000;0.000;2023-05-16T05:54:58;99529.97;;;15.48;70.52
76858;BME280;65830;0.000;0.000;2023-05-16T05:57:24;99546.34;;;15.45;69.97
76858;BME280;65830;0.000;0.000;2023-05-16T05:59:50;99538.50;;;15.43;69.97
76858;BME280;65830;0.000;0.000;2023-05-16T06:02:15;99537.19;;;15.39;69.83
76858;BME280;65830;0.000;0.000;2023-05-16T06:04:41;99541.19;;;15.35;70.63
76858;BME280;65830;0.000;0.000;2023-05-16T06:07:07;99526.47;;;15.39;70.70
76858;BME280;65830;0.000;0.000;2023-05-16T06:09:32;99529.16;;;15.39;70.78
76858;BME280;65830;0.000;0.000;2023-05-16T06:11:58;99529.81;;;15.41;70.89
76858;BME280;65830;0.000;0.000;2023-05-16T06:14:24;99544.53;;;15.37;70.42
76858;BME280;65830;0.000;0.000;2023-05-16T06:16:50;99550.91;;;15.36;70.70
76858;BME280;65830;0.000;0.000;2023-05-16T06:19:15;99531.34;;;15.36;70.60
76858;BME280;65830;0.000;0.000;2023-05-16T06:21:41;99557.25;;;15.35;70.65
76858;BME280;65830;0.000;0.000;2023-05-16T06:24:07;99577.63;;;15.36;70.67
76858;BME280;65830;0.000;0.000;2023-05-16T06:26:34;99546.22;;;15.38;70.86
76858;BME280;65830;0.000;0.000;2023-05-16T06:29:00;99525.50;;;15.40;70.94
76858;BME280;65830;0.000;0.000;2023-05-16T06:31:25;99531.50;;;15.42;70.53
76858;BME280;65830;0.000;0.000;2023-05-16T06:33:51;99543.50;;;15.46;70.64
76858;BME280;65830;0.000;0.000;2023-05-16T06:36:16;99545.16;;;15.47;70.38
76858;BME280;65830;0.000;0.000;2023-05-16T06:38:42;99559.19;;;15.49;70.14
76858;BME280;65830;0.000;0.000;2023-05-16T06:41:07;99509.91;;;15.52;70.32
76858;BME280;65830;0.000;0.000;2023-05-16T06:43:33;99504.69;;;15.59;70.28
76858;BME280;65830;0.000;0.000;2023-05-16T06:45:58;99511.34;;;15.63;70.35
76858;BME280;65830;0.000;0.000;2023-05-16T06:48:24;99530.38;;;15.68;70.01
76858;BME280;65830;0.000;0.000;2023-05-16T06:50:50;99535.38;;;15.71;69.78
76858;BME280;65830;0.000;0.000;2023-05-16T06:53:16;99509.97;;;15.75;69.95
76858;BME280;65830;0.000;0.000;2023-05-16T06:55:42;99514.59;;;15.81;69.67
76858;BME280;65830;0.000;0.000;2023-05-16T06:58:07;99517.94;;;15.83;69.28
76858;BME280;65830;0.000;0.000;2023-05-16T07:00:33;99503.69;;;15.91;69.59
76858;BME280;65830;0.000;0.000;2023-05-16T07:02:59;99514.38;;;15.91;69.09
76858;BME280;65830;0.000;0.000;2023-05-16T07:05:24;99520.69;;;15.98;68.62
76858;BME280;65830;0.000;0.000;2023-05-16T07:07:50;99518.91;;;15.91;68.58
76858;BME280;65830;0.000;0.000;2023-05-16T07:10:15;99517.22;;;15.89;69.07
76858;BME280;65830;0.000;0.000;2023-05-16T07:12:41;99509.63;;;16.01;69.50
76858;BME280;65830;0.000;0.000;2023-05-16T07:15:07;99501.56;;;16.10;69.21
76858;BME280;65830;0.000;0.000;2023-05-16T07:17:33;99505.00;;;16.18;68.85
76858;BME280;65830;0.000;0.000;2023-05-16T07:19:58;99501.44;;;16.26;69.06
76858;BME280;65830;0.000;0.000;2023-05-16T07:22:24;99486.13;;;16.35;68.57
76858;BME280;65830;0.000;0.000;2023-05-16T07:24:49;99490.56;;;16.42;68.44
76858;BME280;65830;0.000;0.000;2023-05-16T07:27:17;99498.84;;;16.56;68.38
76858;BME280;65830;0.000;0.000;2023-05-16T07:29:42;99494.78;;;16.60;68.42
76858;BME280;65830;0.000;0.000;2023-05-16T07:32:08;99487.47;;;16.68;67.92
76858;BME280;65830;0.000;0.000;2023-05-16T07:34:34;99475.84;;;16.76;68.08
76858;BME280;65830;0.000;0.000;2023-05-16T07:36:59;99485.88;;;16.82;66.88
76858;BME280;65830;0.000;0.000;2023-05-16T07:39:25;99491.13;;;16.91;67.56
76858;BME280;65830;0.000;0.000;2023-05-16T07:41:50;99484.94;;;16.90;67.46
76858;BME280;65830;0.000;0.000;2023-05-16T07:44:16;99483.78;;;16.93;67.59
76858;BME280;65830;0.000;0.000;2023-05-16T07:46:41;99482.38;;;16.97;67.61
76858;BME280;65830;0.000;0.000;2023-05-16T07:49:09;99481.25;;;16.91;66.55
76858;BME280;65830;0.000;0.000;2023-05-16T07:51:34;99477.47;;;17.00;67.53
76858;BME280;65830;0.000;0.000;2023-05-16T07:54:00;99482.06;;;17.06;67.17
76858;BME280;65830;0.000;0.000;2023-05-16T07:56:26;99481.63;;;17.03;67.09
76858;BME280;65830;0.000;0.000;2023-05-16T07:58:51;99469.72;;;17.05;67.33
76858;BME280;65830;0.000;0.000;2023-05-16T08:01:19;99479.69;;;17.12;66.84
76858;BME280;65830;0.000;0.000;2023-05-16T08:03:44;99470.91;;;17.18;67.09
76858;BME280;65830;0.000;0.000;2023-05-16T08:06:10;99459.16;;;17.19;66.93
76858;BME280;65830;0.000;0.000;2023-05-16T08:08:36;99456.84;;;17.16;66.41
76858;BME280;65830;0.000;0.000;2023-05-16T08:11:01;99461.56;;;17.14;66.87
76858;BME280;65830;0.000;0.000;2023-05-16T08:13:27;99466.75;;;17.00;67.13
76858;BME280;65830;0.000;0.000;2023-05-16T08:15:52;99461.94;;;17.11;67.74
76858;BME280;65830;0.000;0.000;2023-05-16T08:18:18;99458.78;;;17.22;67.55
76858;BME280;65830;0.000;0.000;2023-05-16T08:20:43;99475.50;;;17.24;67.09
76858;BME280;65830;0.000;0.000;2023-05-16T08:23:09;99467.19;;;17.34;67.20
76858;BME280;65830;0.000;0.000;2023-05-16T08:25:35;99462.16;;;17.45;67.06
76858;BME280;65830;0.000;0.000;2023-05-16T08:28:00;99452.91;;;17.48;66.75
76858;BME280;65830;0.000;0.000;2023-05-16T08:30:26;99463.31;;;17.58;66.55
76858;BME280;65830;0.000;0.000;2023-05-16T08:32:52;99457.88;;;17.66;65.59
76858;BME280;65830;0.000;0.000;2023-05-16T08:35:17;99461.31;;;17.81;65.86
76858;BME280;65830;0.000;0.000;2023-05-16T08:37:43;99465.31;;;17.85;65.69
76858;BME280;65830;0.000;0.000;2023-05-16T08:40:08;99456.13;;;17.95;65.31
76858;BME280;65830;0.000;0.000;2023-05-16T08:42:35;99441.56;;;18.04;64.72
76858;BME280;65830;0.000;0.000;2023-05-16T08:45:00;99433.72;;;18.09;65.42
76858;BME280;65830;0.000;0.000;2023-05-16T08:47:26;99442.06;;;18.14;65.46
76858;BME280;65830;0.000;0.000;2023-05-16T08:49:54;99438.78;;;18.19;65.38
76858;BME280;65830;0.000;0.000;2023-05-16T08:52:21;99420.16;;;18.17;65.34
76858;BME280;65830;0.000;0.000;2023-05-16T08:54:50;99439.50;;;18.28;64.31
76858;BME280;65830;0.000;0.000;2023-05-16T08:57:16;99428.19;;;18.39;64.03
76858;BME280;65830;0.000;0.000;2023-05-16T08:59:43;99430.69;;;18.40;63.99
76858;BME280;65830;0.000;0.000;2023-05-16T09:02:09;99438.75;;;18.40;64.11
76858;BME280;65830;0.000;0.000;2023-05-16T09:04:36;99438.38;;;18.43;64.24
76858;BME280;65830;0.000;0.000;2023-05-16T09:07:02;99422.47;;;18.49;64.31
76858;BME280;65830;0.000;0.000;2023-05-16T09:09:28;99422.94;;;18.59;63.91
76858;BME280;65830;0.000;0.000;2023-05-16T09:11:54;99439.97;;;18.66;62.33
76858;BME280;65830;0.000;0.000;2023-05-16T09:14:20;99439.47;;;18.84;63.34
76858;BME280;65830;0.000;0.000;2023-05-16T09:17:01;99434.13;;;18.91;63.61
76858;BME280;65830;0.000;0.000;2023-05-16T09:19:31;99431.25;;;18.92;63.27
76858;BME280;65830;0.000;0.000;2023-05-16T09:21:56;99428.38;;;18.94;64.10
76858;BME280;65830;0.000;0.000;2023-05-16T09:24:22;99428.38;;;19.00;63.53
76858;BME280;65830;0.000;0.000;2023-05-16T09:26:50;99414.38;;;19.05;62.98
76858;BME280;65830;0.000;0.000;2023-05-16T09:29:15;99431.97;;;19.08;62.70
76858;BME280;65830;0.000;0.000;2023-05-16T09:31:41;99417.47;;;19.09;63.00
76858;BME280;65830;0.000;0.000;2023-05-16T09:34:07;99400.50;;;19.01;63.04
76858;BME280;65830;0.000;0.000;2023-05-16T09:36:33;99400.66;;;18.93;63.02
76858;BME280;65830;0.000;0.000;2023-05-16T09:38:59;99421.50;;;18.84;63.12
76858;BME280;65830;0.000;0.000;2023-05-16T09:41:25;99404.97;;;18.88;64.95
76858;BME280;65830;0.000;0.000;2023-05-16T09:43:50;99385.97;;;18.89;63.83
76858;BME280;65830;0.000;0.000;2023-05-16T09:46:16;99400.03;;;18.91;63.66
76858;BME280;65830;0.000;0.000;2023-05-16T09:48:45;99414.69;;;18.89;64.06
76858;BME280;65830;0.000;0.000;2023-05-16T09:51:12;99396.72;;;18.89;64.77
76858;BME280;65830;0.000;0.000;2023-05-16T09:53:39;99371.47;;;18.90;64.57
76858;BME280;65830;0.000;0.000;2023-05-16T09:56:05;99362.78;;;18.88;64.35
76858;BME280;65830;0.000;0.000;2023-05-16T09:58:35;99376.84;;;18.90;64.40
76858;BME280;65830;0.000;0.000;2023-05-16T10:01:01;99384.53;;;18.93;64.72
76858;BME280;65830;0.000;0.000;2023-05-16T10:03:27;99392.63;;;19.00;63.97
76858;BME280;65830;0.000;0.000;2023-05-16T10:05:53;99395.75;;;19.03;64.18
76858;BME280;65830;0.000;0.000;2023-05-16T10:08:20;99405.06;;;19.08;63.96
76858;BME280;65830;0.000;0.000;2023-05-16T10:10:46;99417.72;;;19.14;63.52
76858;BME280;65830;0.000;0.000;2023-05-16T10:13:13;99421.25;;;19.21;63.28
76858;BME280;65830;0.000;0.000;2023-05-16T10:15:39;99411.13;;;19.23;63.15
76858;BME280;65830;0.000;0.000;2023-05-16T10:18:05;99409.69;;;19.27;62.56
76858;BME280;65830;0.000;0.000;2023-05-16T10:20:36;99387.34;;;19.27;62.86
76858;BME280;65830;0.000;0.000;2023-05-16T10:23:02;99372.03;;;19.34;62.68
76858;BME280;65830;0.000;0.000;2023-05-16T10:25:31;99371.22;;;19.33;62.19
76858;BME280;65830;0.000;0.000;2023-05-16T10:27:58;99360.03;;;19.23;62.55
76858;BME280;65830;0.000;0.000;2023-05-16T10:30:24;99357.97;;;19.25;63.37
76858;BME280;65830;0.000;0.000;2023-05-16T10:32:49;99355.47;;;19.30;62.58
76858;BME280;65830;0.000;0.000;2023-05-16T10:35:16;99366.28;;;19.37;63.28
76858;BME280;65830;0.000;0.000;2023-05-16T10:37:41;99357.81;;;19.47;62.31
76858;BME280;65830;0.000;0.000;2023-05-16T10:40:07;99355.56;;;19.57;61.93
76858;BME280;65830;0.000;0.000;2023-05-16T10:42:34;99337.75;;;19.62;62.22
76858;BME280;65830;0.000;0.000;2023-05-16T10:47:40;99327.03;;;19.89;61.64
76858;BME280;65830;0.000;0.000;2023-05-16T10:50:08;99324.53;;;20.01;60.91
76858;BME280;65830;0.000;0.000;2023-05-16T10:52:34;99316.84;;;20.24;61.33
76858;BME280;65830;0.000;0.000;2023-05-16T10:55:01;99318.72;;;20.24;60.27
76858;BME280;65830;0.000;0.000;2023-05-16T10:57:27;99318.91;;;20.22;60.48
76858;BME280;65830;0.000;0.000;2023-05-16T10:59:55;99326.81;;;20.11;60.91
76858;BME280;65830;0.000;0.000;2023-05-16T11:02:29;99323.91;;;20.12;60.98
76858;BME280;65830;0.000;0.000;2023-05-16T11:04:57;99312.72;;;20.09;61.01
76858;BME280;65830;0.000;0.000;2023-05-16T11:07:24;99300.91;;;20.16;61.44
76858;BME280;65830;0.000;0.000;2023-05-16T11:10:06;99301.50;;;20.18;60.83
76858;BME280;65830;0.000;0.000;2023-05-16T11:15:01;99310.63;;;20.17;60.87
76858;BME280;65830;0.000;0.000;2023-05-16T11:17:41;99305.84;;;20.19;60.84
76858;BME280;65830;0.000;0.000;2023-05-16T11:20:07;99308.78;;;20.18;60.83
76858;BME280;65830;0.000;0.000;2023-05-16T11:22:42;99322.44;;;20.16;60.79
76858;BME280;65830;0.000;0.000;2023-05-16T11:25:08;99317.06;;;20.16;61.00
76858;BME280;65830;0.000;0.000;2023-05-16T11:27:45;99302.97;;;20.14;60.64
76858;BME280;65830;0.000;0.000;2023-05-16T11:30:12;99304.63;;;20.09;61.05
76858;BME280;65830;0.000;0.000;2023-05-16T11:32:38;99301.97;;;20.02;61.03
76858;BME280;65830;0.000;0.000;2023-05-16T11:35:04;99312.31;;;20.05;60.89
76858;BME280;65830;0.000;0.000;2023-05-16T11:37:31;99323.50;;;20.09;61.15
76858;BME280;65830;0.000;0.000;2023-05-16T11:40:00;99315.81;;;20.12;62.02
76858;BME280;65830;0.000;0.000;2023-05-16T11:42:29;99307.31;;;20.09;60.37
76858;BME280;65830;0.000;0.000;2023-05-16T11:45:11;99301.72;;;20.03;60.13
76858;BME280;65830;0.000;0.000;2023-05-16T11:47:39;99310.41;;;20.19;59.97
76858;BME280;65830;0.000;0.000;2023-05-16T11:50:05;99308.50;;;20.59;60.71
76858;BME280;65830;0.000;0.000;2023-05-16T11:52:32;99302.66;;;21.08;59.57
76858;BME280;65830;0.000;0.000;2023-05-16T11:54:57;99299.78;;;21.66;58.44
76858;BME280;65830;0.000;0.000;2023-05-16T11:57:26;99295.09;;;22.05;57.63
76858;BME280;65830;0.000;0.000;2023-05-16T11:59:51;99296.91;;;22.11;57.09
76858;BME280;65830;0.000;0.000;2023-05-16T12:02:17;99289.97;;;22.22;57.01
76858;BME280;65830;0.000;0.000;2023-05-16T12:04:45;99296.34;;;22.65;56.25
76858;BME280;65830;0.000;0.000;2023-05-16T12:07:10;99286.44;;;22.77;54.19
76858;BME280;65830;0.000;0.000;2023-05-16T12:09:36;99271.28;;;22.39;54.45
76858;BME280;65830;0.000;0.000;2023-05-16T12:12:03;99281.84;;;22.22;55.80
76858;BME280;65830;0.000;0.000;2023-05-16T12:14:29;99301.56;;;22.04;56.02
76858;BME280;65830;0.000;0.000;2023-05-16T12:16:54;99317.19;;;21.77;56.24
76858;BME280;65830;0.000;0.000;2023-05-16T12:19:20;99309.56;;;21.67;57.45
76858;BME280;65830;0.000;0.000;2023-05-16T12:21:46;99309.94;;;21.46;56.54
76858;BME280;65830;0.000;0.000;2023-05-16T12:24:11;99311.19;;;21.36;56.86
76858;BME280;65830;0.000;0.000;2023-05-16T12:26:43;99308.50;;;21.36;57.94
76858;BME280;65830;0.000;0.000;2023-05-16T12:29:09;99307.44;;;21.44;57.45
76858;BME280;65830;0.000;0.000;2023-05-16T12:31:36;99306.34;;;21.52;57.13
76858;BME280;65830;0.000;0.000;2023-05-16T12:34:02;99303.22;;;21.55;56.79
76858;BME280;65830;0.000;0.000;2023-05-16T12:36:30;99293.63;;;21.59;56.58
76858;BME280;65830;0.000;0.000;2023-05-16T12:38:58;99289.16;;;21.46;56.55
76858;BME280;65830;0.000;0.000;2023-05-16T12:41:25;99292.78;;;21.58;56.83
76858;BME280;65830;0.000;0.000;2023-05-16T12:43:50;99268.56;;;21.52;56.82
76858;BME280;65830;0.000;0.000;2023-05-16T12:46:30;99259.03;;;21.74;55.91
76858;BME280;65830;0.000;0.000;2023-05-16T12:49:00;99254.88;;;22.15;55.55
76858;BME280;65830;0.000;0.000;2023-05-16T12:51:49;99254.91;;;22.52;55.46
76858;BME280;65830;0.000;0.000;2023-05-16T12:54:15;99247.56;;;22.90;53.37
76858;BME280;65830;0.000;0.000;2023-05-16T12:56:40;99245.41;;;23.10;54.01
76858;BME280;65830;0.000;0.000;2023-05-16T12:59:07;99231.78;;;23.17;53.31
76858;BME280;65830;0.000;0.000;2023-05-16T13:01:33;99218.00;;;23.07;52.30
76858;BME280;65830;0.000;0.000;2023-05-16T13:03:59;99218.47;;;22.85;54.38
76858;BME280;65830;0.000;0.000;2023-05-16T13:06:24;99237.69;;;22.65;54.50
76858;BME280;65830;0.000;0.000;2023-05-16T13:08:53;99223.19;;;22.59;55.02
76858;BME280;65830;0.000;0.000;2023-05-16T13:11:22;99223.56;;;22.63;55.30
76858;BME280;65830;0.000;0.000;2023-05-16T13:13:47;99227.78;;;22.59;54.53
76858;BME280;65830;0.000;0.000;2023-05-16T13:16:13;99221.56;;;22.58;52.85
76858;BME280;65830;0.000;0.000;2023-05-16T13:18:38;99227.13;;;22.64;54.17
76858;BME280;65830;0.000;0.000;2023-05-16T13:21:04;99221.03;;;22.68;54.27
76858;BME280;65830;0.000;0.000;2023-05-16T13:23:29;99229.88;;;23.06;54.03
76858;BME280;65830;0.000;0.000;2023-05-16T13:25:55;99210.91;;;23.48;51.63
76858;BME280;65830;0.000;0.000;2023-05-16T13:28:21;99198.91;;;23.91;52.11
76858;BME280;65830;0.000;0.000;2023-05-16T13:30:46;99197.59;;;24.46;49.74
76858;BME280;65830;0.000;0.000;2023-05-16T13:33:13;99205.06;;;24.50;51.40